METAR v bližini

 

LJMB - Maribor Edvarda Rusjana, Slovenia
Oddaljenost od postaje: SV 30,9km
Podatki zajeti: 09/08/2020 04:30
Jasno
Jasno
 Veter iz smeri calm
Veter: Mirno
Temperatura: 17°C
Rosišče: 16°C
Vlažnost: 94%
Tlak: 1018 hPa
Oblačnost: Jasno
Vidljivost: 10 km
2020/08/09 02:30 LJMB 090230Z AUTO 00000KT 9999 NCD 17/16 Q1018
LJLJ - Ljubljana Brnik, Slovenia
Oddaljenost od postaje: S 103km
Podatki zajeti: 09/08/2020 04:30
Jasno
Jasno
 Veter iz smeri spremenljiv
Veter: spremenljiv 2 km/h
Temperatura: 15°C
Rosišče: 15°C
Vlažnost: 100%
Tlak: 1019 hPa
Stanje: Jasno
Vidljivost: večja od 10 km
2020/08/09 02:30 LJLJ 090230Z VRB01KT CAVOK 15/15 Q1019 NOSIG
 
LJPZ - Portorož, Slovenia
Oddaljenost od postaje: SSZ 224km
Podatki zajeti: 09/08/2020 04:30
Jasno
Jasno
 Veter iz smeri VJV
Veter: VJV 13 km/h
Temperatura: 20°C
Rosišče: 15°C
Vlažnost: 73%
Tlak: 1016 hPa
Oblačnost: Jasno
Vidljivost: 10 km
2020/08/09 02:30 LJPZ 090230Z AUTO 12007KT 9999 NCD 20/15 Q1016
LJCE - Cerklje, Slovenia
Oddaljenost od postaje: VSV 83,9km
Podatki zajeti: 09/08/2020 04:30
Jasno
Jasno
 Veter iz smeri calm
Veter: Mirno
Temperatura: 18°C
Rosišče: 17°C
Vlažnost: 94%
Tlak: 1018 hPa
Oblačnost: Jasno
Vidljivost: 9 km
2020/08/09 02:30 LJCE 090230Z AUTO 00000KT 9000 NCD 18/17 Q1018
 
LOWG - Graz, Austria
Oddaljenost od postaje: SSZ 99,6km
Podatki zajeti: 09/08/2020 04:50
Delno oblačno
Delno oblačno
 Veter iz smeri J
Veter: J 4 km/h
Temperatura: 17°C
Rosišče: 16°C
Vlažnost: 94%
Tlak: 1019 hPa
Oblačnost: Delno oblačno
Vidljivost: 9 km
2020/08/09 02:50 LOWG 090250Z AUTO 18002KT 9000 NSC 17/16 Q1019
LOWK - Klagenfurt, Austria
Oddaljenost od postaje: SZ 121km
Podatki zajeti: 09/08/2020 04:50
Jasno
Jasno
 Veter iz smeri ZSZ
Veter: ZSZ 6 km/h
Temperatura: 17°C
Rosišče: 15°C
Vlažnost: 88%
Tlak: 1021 hPa
Oblačnost: Jasno
Vidljivost: 10 km
2020/08/09 02:50 LOWK 090250Z AUTO 30003KT 240V320 9999 NCD 17/15 Q1021
 
LDRI - Rijeka, Croatia
Oddaljenost od postaje: SZ 243km
Podatki zajeti: 09/08/2020 04:30
Jasno
Jasno
 Veter iz smeri calm
Veter: Mirno
Temperatura: 23°C
Rosišče: 19°C
Vlažnost: 78%
Tlak: 1016 hPa
Stanje: Jasno
Vidljivost: večja od 10 km
2020/08/09 02:30 LDRI 090230Z 00000KT CAVOK 23/19 Q1016
LIPQ - Ronchi, Italy
Oddaljenost od postaje: VJV 224km
Podatki zajeti: 09/08/2020 04:50
Jasno
Jasno
 Veter iz smeri S
Veter: S 7 km/h
Temperatura: 20°C
Rosišče: 17°C
Vlažnost: 83%
Tlak: 1016 hPa
Oblačnost: Jasno
Vidljivost: 10 km
2020/08/09 02:50 LIPQ 090250Z AUTO 01004KT 9999 NCD 20/17 Q1016
 
LDZA - Zagreb, Croatia
Oddaljenost od postaje: JJV 143km
Podatki zajeti: 09/08/2020 04:30
Jasno
Jasno
 Veter iz smeri JZ
Veter: JZ 7 km/h
Temperatura: 20°C
Rosišče: 18°C
Vlažnost: 88%
Tlak: 1017 hPa
Stanje: Jasno
Vidljivost: večja od 10 km
2020/08/09 02:30 LDZA 090230Z 23004KT CAVOK 20/18 Q1017 NOSIG
LIVT - Trieste, Italy
Oddaljenost od postaje: ZSZ 250km
Podatki zajeti: 08/08/2020 19:55
Ni posodobljen
Jasno
Jasno
 Veter iz smeri spremenljiv
Veter: spremenljiv 0 km/h
Temperatura: 31°C
Toplotni indeks: 32°C
Rosišče: 18°C
Vlažnost: 46%
Tlak: 1015 hPa
Stanje: Jasno
Vidljivost: večja od 10 km
2020/08/08 17:55 LIVT 081755Z /////KT CAVOK 31/18 Q1015 RMK SKC QUK 1 QUL 0 VIS MAR 20 KM VIS MIN 9999
 
LIPA - Aviano, Italy
Oddaljenost od postaje: S 310km
Podatki zajeti: 07/08/2020 19:55
Ni posodobljen
Jasno
Jasno
 Veter iz smeri SSZ
Veter: SSZ 7 km/h
Temperatura: 28°C
Toplotni indeks: 28°C
Rosišče: 17°C
Vlažnost: 51%
Tlak: 1017 hPa
Stanje: Jasno
Vidljivost: večja od 10 km
2020/08/07 17:55 LIPA 071755Z 34004KT CAVOK 28/17 Q1017 RMK SKC VIS MIN 9999 WIND THR05 /////KT WIND THR23 /////KT A3005 BLU
LDPL - Pula, Croatia
Oddaljenost od postaje: SSV 304km
Podatki zajeti: 09/08/2020 04:30
Jasno
Jasno
 Veter iz smeri SV
Veter: SV 13 km/h
Temperatura: 24°C
Rosišče: 16°C
Vlažnost: 61%
Tlak: 1016 hPa
Stanje: Jasno
Vidljivost: večja od 10 km
2020/08/09 02:30 LDPL 090230Z 04007KT CAVOK 24/16 Q1016 NOSIG